Tiempo atmosférico en la estación meteorológica de Villacarriedo, Cantabria (194 m.)



Fecha
DESCASC
Temp. máxima en grados centígrados (hora)
DESCASC
Temp. mínima en grados centígrados (hora)
DESCASC
Temp. media en grados centígrados
DESCASC
Racha de viento máxima en m/sg (hora)
DESCASC
Velocidad máxima media en intervalos de 10 minutos(hora)
DESCASC
Precipitaciones diarias en mm
DESCASC
Precipitaciones de 00:00 a 06:00 en mm
DESCASC
Precipitaciones de 06:00 a 12:00 en mm
DESCASC
Precipitaciones de 12:00 a 18:00 en mm
DESCASC
Precipitaciones de 18:00 a 24:00 en mm
DESCASC
03-10-2019 21.7 (16:10) 9.1 (00:00) 15.4 6.39 (14:00) 3.61 (14:10) 0 0 0 0 0
17-10-2019 23.7 (14:10) 14.2 (00:00) 19 19.44 (00:20) 11.39 (00:20) 1.8 1.8 0 0 0
16-10-2019 20.6 (14:40) 15.4 (00:00) 18 18.33 (12:10) 8.89 (23:59) 1.6 0 0 0 1.6
13-10-2019 25.7 (14:40) 14.8 (00:00) 20.3 18.33 (07:40) 9.17 (07:50) 0 0 0 0 0
12-10-2019 30.5 (16:50) 14.5 (00:00) 22.5 12.5 (15:40) 6.11 (16:40) 0 0 0 0 0
11-10-2019 28.7 (15:00) 7.8 (00:00) 18.3 7.22 (14:00) 4.44 (15:50) 0 0 0 0 0
10-10-2019 20.7 (15:10) 6.7 (00:00) 13.7 6.11 (17:20) 3.61 (15:50) 0 0 0 0 0
08-10-2019 25.1 (14:40) 8.2 (00:00) 16.7 11.11 (15:50) 5.56 (16:00) 4.2 0 0 0 4.2
07-10-2019 23.6 (15:00) 9.1 (00:00) 16.4 3.61 (16:20) 1.94 (16:20) 0 0 0 0 0
18-09-2019 23 (12:50) 17.2 (00:00) 20.1 5.28 (17:50) 3.06 (17:50) 0 0 0 0 0
01-10-2019 22 (14:00) 14.1 (00:00) 18.1 7.22 (15:30) 3.61 (19:30) 3.2 0 0 0 3.2
30-09-2019 27.3 (17:10) 14.8 (00:00) 21 5.28 (18:40) 3.06 (18:40) 0 0 0 0 0
28-09-2019 21.9 (16:20) 14 (00:00) 17.9 5.83 (15:10) 3.33 (15:10) 0 0 0 0 0
19-09-2019 23.7 (14:50) 14.8 (00:00) 19.3 6.67 (15:20) 3.89 (15:30) -- 0 0 -- 0
20-09-2019 29.9 (15:00) 12.1 (00:00) 21 11.11 (23:10) 5.28 (23:10) 0.2 0 0 0 0.2
21-09-2019 24.6 (12:40) 19.3 (00:00) 21.9 15.83 (17:40) 6.94 (18:40) 2.2 2 0 0.2 0
22-09-2019 22.6 (00:10) 14.5 (00:00) 18.6 10.56 (00:20) 6.11 (00:30) 0.8 0.8 0 0 0
23-09-2019 22.8 (14:50) 10.5 (00:00) 16.6 9.17 (13:50) 5 (12:00) 1 0 0 0 1
24-09-2019 23.3 (04:50) 15.8 (00:00) 19.5 14.72 (02:40) 7.78 (02:40) 0 0 0 0 0
25-09-2019 21.7 (13:40) 10.4 (00:00) 16.1 6.11 (13:40) 3.33 (14:20) 0 0 0 0 0
26-09-2019 22.2 (14:30) 12.5 (00:00) 17.4 8.33 (16:20) 4.72 (16:20) 0 0 0 0 0
27-09-2019 23.2 (14:20) 10.2 (00:00) 16.7 7.78 (16:40) 3.89 (16:10) 0 0 0 0 0
29-09-2019 26.9 (15:40) 7.6 (00:00) 17.2 8.33 (16:20) 4.72 (16:20) 0 0 0 0 0
09-10-2019 19 (14:40) 10.7 (00:00) 14.8 6.39 (14:50) 3.61 (14:50) 1.2 1 0.2 0 0
05-10-2019 19.7 (13:50) 12.4 (00:00) 16.1 6.11 (17:10) 3.61 (16:40) 0.2 0 0.2 0 0
15-10-2019 19.2 (14:50) 6.3 (00:00) 12.8 12.78 (20:40) 7.5 (21:10) 0.2 0 0.2 0 0
06-10-2019 17.6 (16:10) 13.1 (00:00) 15.4 5.56 (16:40) 3.06 (16:40) 1.6 0 0.6 1 0
04-10-2019 18.2 (14:10) 11.8 (00:00) 15 4.72 (15:40) 2.78 (13:30) 2 0 1.2 0.2 0.6
14-10-2019 21 (01:10) 10.1 (00:00) 15.6 12.22 (15:50) 6.11 (16:20) 12.4 0 3.4 0.8 8.2
02-10-2019 19.1 (14:50) 13.6 (00:00) 16.4 7.22 (07:00) 4.44 (15:10) 4.4 0 4.2 0 0.2

Gráficas

Temp. máximas Temp. mínimas Temp. medias Precipitaciones Rachas de viento máximas Velocidades máximas media en intervalos de 10 minutos

Datos horarios

Fecha y hora oficial Temperatura (ºC) Velocidad del viento (km/h) Dirección del viento Racha (km/h) Dirección de racha Precipitación (mm) Presión (hPa) Tendencia (hPa) Humedad (%)
2019-10-17 23:00:00 14.5 0 Calma 5 Sudeste 0 -- -- 93
2019-10-17 22:00:00 14.5 4 Sudeste 6 Sudeste 0 -- -- 93
2019-10-17 21:00:00 14.5 2 Sudoeste 9 Sudoeste 0 -- -- 92
2019-10-17 20:00:00 14.5 4 Sudoeste 11 Norte 0 -- -- 93
2019-10-17 19:00:00 15.1 6 Nordeste 11 Norte 0 -- -- 92
2019-10-17 18:00:00 15.5 3 Norte 11 Norte 0 -- -- 91
2019-10-17 17:00:00 15.5 9 Nordeste 15 Nordeste 0 -- -- 92
2019-10-17 16:00:00 16.4 11 Noroeste 23 Norte 0 -- -- 90
2019-10-17 15:00:00 19 10 Norte 36 Oeste 0 -- -- 79
2019-10-17 14:00:00 23.4 12 Sur 26 Sudoeste 0 -- -- 51
2019-10-17 13:00:00 21.7 16 Sudoeste 33 Sudoeste 0 -- -- 60
2019-10-17 12:00:00 20.9 9 Sur 27 Sudeste 0 -- -- 63
2019-10-17 11:00:00 19.1 16 Sudeste 25 Sudeste 0 -- -- 68
2019-10-17 10:00:00 17.6 8 Sudeste 18 Sudeste 0 -- -- 71
2019-10-17 09:00:00 16 4 Sudeste 31 Sudeste 0 -- -- 73
2019-10-17 08:00:00 16.5 21 Sudeste 33 Sudeste 0 -- -- 72
2019-10-17 07:00:00 16.4 11 Este 37 Sudeste 0 -- -- 72
2019-10-17 06:00:00 16.5 9 Sur 35 Sur 0 -- -- 73
2019-10-17 05:00:00 15.9 14 Sur 29 Sur 0.6 -- -- 80
2019-10-17 04:00:00 15.9 12 Sur 49 Sudoeste 1.2 -- -- 82
2019-10-17 03:00:00 17.2 31 Sudoeste 54 Sudoeste 0 -- -- 73
2019-10-17 02:00:00 16.9 28 Sudoeste 62 Sudoeste 0 -- -- 74
2019-10-17 01:00:00 17.2 39 Sudoeste 70 Sudoeste 0 -- -- 72
2019-10-17 00:00:00 18.2 32 Sudoeste 65 Sudoeste 0.2 -- -- 65
2019-10-16 23:00:00 16.6 12 Sur 45 Sur 0.6 -- -- 75
2019-10-16 22:00:00 17.4 23 Sudoeste 44 Sudoeste 0.4 -- -- 70
2019-10-16 21:00:00 16.8 14 Sur 33 Sudeste 0 -- -- 73
2019-10-16 20:00:00 16.8 11 Sudeste 26 Sur 0.4 -- -- 74
2019-10-16 19:00:00 18.5 12 Sur 40 Sur 0 -- -- 59
2019-10-16 18:00:00 18.9 22 Sur 44 Sur 0 -- -- 58
2019-10-16 17:00:00 19.3 21 Sudeste 46 Sur 0 -- -- 57
2019-10-16 16:00:00 18.5 20 Sur 46 Sur 0 -- -- 59
2019-10-16 15:00:00 19.8 12 Sur 39 Sur 0 -- -- 55
2019-10-16 14:00:00 20 18 Sudeste 42 Este 0 -- -- 56
2019-10-16 13:00:00 17.6 13 Sur 66 Sur 0 -- -- 62
2019-10-16 12:00:00 16.1 30 Sudoeste 54 Sudoeste 0 -- -- 66
2019-10-16 11:00:00 15.9 17 Sur 47 Sudoeste 0 -- -- 66
2019-10-16 10:00:00 16 8 Sudeste 38 Sudeste 0 -- -- 65
2019-10-16 09:00:00 15.9 10 Sudeste 33 Sur 0 -- -- 63
2019-10-16 08:00:00 15.8 9 Sudeste 36 Sudeste 0 -- -- 62
2019-10-16 07:00:00 15.8 15 Sudeste 33 Sudeste 0 -- -- 63
2019-10-16 06:00:00 15.9 14 Sudeste 39 Sudeste 0 -- -- 62
2019-10-16 05:00:00 16.3 9 Este 42 Sur 0 -- -- 62
2019-10-16 04:00:00 16.2 13 Sudeste 42 Sur 0 -- -- 61
2019-10-16 03:00:00 16.3 9 Sur 38 Sudoeste 0 -- -- 60
2019-10-16 02:00:00 16.2 13 Sur 39 Sudoeste 0 -- -- 60
2019-10-16 01:00:00 16.7 19 Sur 41 Sudoeste 0 -- -- 54
2019-10-16 00:00:00 16.3 9 Sur 30 Sudoeste 0 -- -- 56
2019-10-15 23:00:00 16.4 16 Sudoeste 32 Sudoeste 0 -- -- 56
2019-10-15 22:00:00 16.4 14 Sudoeste 41 Sudoeste 0 -- -- 59
2019-10-15 21:00:00 16.8 24 Sudoeste 46 Sudoeste 0 -- -- 57
2019-10-15 20:00:00 16.9 18 Sur 40 Sudoeste 0 -- -- 53
2019-10-15 19:00:00 17.1 17 Sudoeste 32 Sudoeste 0 -- -- 51
2019-10-15 18:00:00 18.2 13 Sur 28 Sur 0 -- -- 50
2019-10-15 17:00:00 18.1 14 Sur 30 Sur 0 -- -- 46
2019-10-15 16:00:00 18.9 15 Sur 29 Sur 0 -- -- 44
2019-10-15 15:00:00 19.2 15 Sur 29 Sur 0 -- -- 44
2019-10-15 14:00:00 18.9 10 Sur 29 Sudeste 0 -- -- 48
2019-10-15 13:00:00 17.7 15 Sudeste 26 Sur 0 -- -- 50
2019-10-15 12:00:00 15.4 4 Norte 8 Norte 0 -- -- 64
2019-10-15 11:00:00 12.3 3 Sudoeste 8 Noroeste 0 -- -- 83
2019-10-15 10:00:00 8.7 3 Noroeste 7 Noroeste 0 -- -- 98
2019-10-15 09:00:00 7.1 0 Calma 9 Norte 0.2 -- -- 99
2019-10-15 08:00:00 6.7 3 Sudoeste 9 Este 0 -- -- 99
2019-10-15 07:00:00 6.7 3 Sudoeste 13 Norte 0 -- -- 98
2019-10-15 06:00:00 6.8 3 Noroeste 8 Norte 0 -- -- 98
2019-10-15 05:00:00 7.1 3 Sudoeste 10 Noroeste 0 -- -- 96
2019-10-15 04:00:00 7.7 3 Oeste 9 Noroeste 0 -- -- 96
2019-10-15 03:00:00 8.4 3 Sur 10 Sudeste 0 -- -- 96
2019-10-15 02:00:00 8.9 4 Nordeste 12 Noroeste 0 -- -- 97
2019-10-15 01:00:00 8.8 4 Sudoeste 8 Norte 0 -- -- 95
2019-10-15 00:00:00 10.1 4 Nordeste 8 Sudeste 0.2 -- -- 94
2019-10-14 23:00:00 10.5 3 Este 9 Este 0 -- -- 94
2019-10-14 22:00:00 10.9 5 Sudeste 16 Sur 0 -- -- 92
2019-10-14 21:00:00 10.8 7 Sudeste 15 Sudeste 1.6 -- -- 93
2019-10-14 20:00:00 11 8 Este 42 Noroeste 6.4 -- -- 92
2019-10-14 19:00:00 14.2 12 Noroeste 29 Noroeste 0 -- -- 85
2019-10-14 18:00:00 17 12 Oeste 41 Sudoeste 0 -- -- 69
2019-10-14 17:00:00 17.9 14 Sudoeste 38 Sur 0 -- -- 56
2019-10-14 16:00:00 19 20 Sudoeste 44 Sur 0 -- -- 49
2019-10-14 15:00:00 19 21 Sur 40 Sudoeste 0 -- -- 48
2019-10-14 14:00:00 19.1 18 Sudoeste 35 Sudoeste 0 -- -- 59
2019-10-14 13:00:00 15.4 7 Norte 17 Noroeste 0.8 -- -- 82
2019-10-14 12:00:00 14.9 4 Sudoeste 11 Oeste 0 -- -- 82
2019-10-14 11:00:00 14.2 4 Norte 8 Norte 2.2 -- -- 92
2019-10-14 10:00:00 14.5 4 Oeste 7 Norte 0.4 -- -- 90
2019-10-14 09:00:00 14.3 2 Norte 13 Noroeste 0 -- -- 92
2019-10-14 08:00:00 14.7 6 Norte 16 Norte 0.8 -- -- 91
2019-10-14 07:00:00 15.3 9 Norte 30 Noroeste 0 -- -- 89
2019-10-14 06:00:00 17.3 14 Noroeste 31 Noroeste 0 -- -- 85
2019-10-14 05:00:00 19.5 10 Sur 23 Sur 0 -- -- 54
2019-10-14 04:00:00 18 6 Sudoeste 21 Sudeste 0 -- -- 59
2019-10-14 03:00:00 20.3 12 Sur 35 Sur 0 -- -- 49
2019-10-14 02:00:00 20.4 15 Sur 36 Sur 0 -- -- 49
2019-10-14 01:00:00 20.8 17 Sur 35 Sur 0 -- -- 48
2019-10-14 00:00:00 15.1 4 Norte 13 Sudeste 0 -- -- 90
2019-10-13 23:00:00 15.2 3 Noroeste 7 Noroeste 0 -- -- 96
2019-10-13 22:00:00 15.6 4 Noroeste 5 Noroeste 0 -- -- 95
2019-10-13 21:00:00 16.1 0 Calma 5 Noroeste 0 -- -- 89
2019-10-13 20:00:00 17.9 3 Norte 6 Nordeste 0 -- -- 89
2019-10-13 19:00:00 18.9 4 Norte 21 Norte 0 -- -- 86
2019-10-13 18:00:00 19.9 13 Norte 24 Norte 0 -- -- 81
2019-10-13 17:00:00 21 10 Norte 26 Norte 0 -- -- 76
2019-10-13 16:00:00 22.8 10 Noroeste 44 Sudoeste 0 -- -- 62
2019-10-13 15:00:00 25.5 22 Sudoeste 40 Oeste 0 -- -- 42
2019-10-13 14:00:00 24.7 8 Oeste 36 Oeste 0 -- -- 45
2019-10-13 13:00:00 22.1 13 Sudoeste 44 Sudoeste 0 -- -- 48
2019-10-13 12:00:00 21 17 Sur 49 Sur 0 -- -- 52
2019-10-13 11:00:00 21.1 23 Sudoeste 51 Sudoeste 0 -- -- 56
2019-10-13 10:00:00 21 24 Sur 53 Sur 0 -- -- 58
2019-10-13 09:00:00 21.5 19 Sur 47 Sur 0 -- -- 59
2019-10-13 08:00:00 21.9 28 Sudoeste 66 Sudoeste 0 -- -- 57
2019-10-13 07:00:00 22.8 30 Sudoeste 64 Sudoeste 0 -- -- 48
2019-10-13 06:00:00 22.7 22 Sur 47 Sudoeste 0 -- -- 44
2019-10-13 05:00:00 23.5 17 Sur 46 Sudoeste 0 -- -- 41
2019-10-13 04:00:00 24.3 21 Sur 57 Sudoeste 0 -- -- 40
2019-10-13 03:00:00 24.9 19 Sur 49 Sudoeste 0 -- -- 39
2019-10-13 02:00:00 25.4 24 Sur 48 Sur 0 -- -- 38
2019-10-13 01:00:00 25 14 Sur 35 Sudoeste 0 -- -- 39
2019-10-13 00:00:00 23.9 12 Sur 35 Sudoeste 0 -- -- 44
2019-10-12 23:00:00 16.2 4 Nordeste 10 Noroeste 0 -- -- 93
2019-10-12 22:00:00 17.6 3 Noroeste 17 Noroeste 0 -- -- 93
2019-10-12 21:00:00 17.9 10 Norte 26 Norte 0 -- -- 94
2019-10-12 20:00:00 18.8 13 Norte 20 Norte 0 -- -- 91
2019-10-12 19:00:00 20.7 8 Norte 22 Norte 0 -- -- 81
2019-10-12 18:00:00 29.8 12 Sur 38 Sudoeste 0 -- -- 33
2019-10-12 17:00:00 30.4 17 Sudoeste 44 Sudoeste 0 -- -- 30
2019-10-12 16:00:00 29.8 16 Sur 45 Sudeste 0 -- -- 37
2019-10-12 15:00:00 28.8 11 Sur 34 Sur 0 -- -- 40
2019-10-12 14:00:00 25.9 13 Sur 30 Sudeste 0 -- -- 46
2019-10-12 13:00:00 25.1 18 Sur 40 Sur 0 -- -- 52
2019-10-12 12:00:00 24.5 14 Sur 42 Sur 0 -- -- 52
2019-10-12 11:00:00 23 18 Sur 40 Sur 0 -- -- 55
2019-10-12 10:00:00 22.4 14 Sur 36 Sur 0 -- -- 55
2019-10-12 09:00:00 22.3 15 Sur 38 Sur 0 -- -- 55
2019-10-12 08:00:00 22.1 13 Sur 29 Sur 0 -- -- 57
2019-10-12 07:00:00 18.8 12 Sur 23 Sur 0 -- -- 74
2019-10-12 06:00:00 14.6 0 Calma 8 Noroeste 0 -- -- 98
2019-10-12 05:00:00 15 5 Noroeste 11 Norte 0 -- -- 97
2019-10-12 04:00:00 14.8 3 Noroeste 7 Noroeste 0 -- -- 98
2019-10-12 03:00:00 14.8 0 Calma 6 Norte 0 -- -- 96
2019-10-12 02:00:00 15.5 2 Norte 10 Noroeste 0 -- -- 96
2019-10-12 01:00:00 15.7 3 Norte 7 Noroeste 0 -- -- 95
2019-10-12 00:00:00 16.4 2 Sudeste 6 Sudeste 0 -- -- 93
2019-10-11 23:00:00 16.4 0 Calma 12 Noroeste 0 -- -- 92
2019-10-11 22:00:00 16.4 7 Noroeste 12 Noroeste 0 -- -- 92
2019-10-11 21:00:00 16.5 0 Calma 10 Norte 0 -- -- 89
2019-10-11 20:00:00 17.8 7 Norte 10 Norte 0 -- -- 87
2019-10-11 19:00:00 20 8 Norte 14 Norte 0 -- -- 77
2019-10-11 18:00:00 21.8 6 Norte 14 Nordeste 0 -- -- 72
2019-10-11 17:00:00 22.7 8 Norte 16 Norte 0 -- -- 71
2019-10-11 16:00:00 23.5 12 Norte 24 Norte 0 -- -- 65
2019-10-11 15:00:00 28.7 10 Sudeste 24 Sudeste 0 -- -- 37
2019-10-11 14:00:00 27.4 10 Sur 26 Sur 0 -- -- 39
2019-10-11 13:00:00 25.9 5 Sudoeste 14 Sudoeste 0 -- -- 40
2019-10-11 12:00:00 23.4 3 Nordeste 9 Este 0 -- -- 47
2019-10-11 11:00:00 19.2 2 Oeste 8 Noroeste 0 -- -- 83
2019-10-11 10:00:00 14 3 Norte 6 Sudoeste 0 -- -- 91
2019-10-11 09:00:00 11 0 Calma 8 Sudoeste 0 -- -- 87
2019-10-11 08:00:00 11 3 Sudoeste 10 Noroeste 0 -- -- 89
2019-10-11 07:00:00 11.7 6 Norte 14 Noroeste 0 -- -- 87
2019-10-11 06:00:00 9.1 5 Oeste 14 Oeste 0 -- -- 100
2019-10-11 05:00:00 8.5 2 Nordeste 5 Sudoeste 0 -- -- 100
2019-10-11 04:00:00 9 0 Calma 4 Sudoeste 0 -- -- 100
2019-10-11 03:00:00 9.4 0 Calma 5 Sudoeste 0 -- -- 99
2019-10-11 02:00:00 9.9 0 Calma 4 Sudoeste 0 -- -- 99
2019-10-11 01:00:00 10.3 0 Calma 3 Sudoeste 0 -- -- 98
2019-10-11 00:00:00 10.8 0 Calma 4 Sudoeste 0 -- -- 97
2019-10-10 23:00:00 11.6 3 Norte 6 Norte 0 -- -- 95
2019-10-10 22:00:00 12.3 0 Calma 4 Sur 0 -- -- 91
2019-10-10 21:00:00 13.6 2 Sudoeste 5 Noroeste 0 -- -- 88
2019-10-10 20:00:00 15.3 2 Sudoeste 5 Noroeste 0 -- -- 85
2019-10-10 19:00:00 17.8 3 Norte 16 Norte 0 -- -- 74
2019-10-10 18:00:00 18.9 9 Norte 22 Norte 0 -- -- 70
2019-10-10 17:00:00 19.6 11 Norte 20 Norte 0 -- -- 69
2019-10-10 16:00:00 20.1 10 Norte 18 Norte 0 -- -- 64
2019-10-10 15:00:00 20.5 7 Norte 15 Nordeste 0 -- -- 58
2019-10-10 14:00:00 20.2 4 Nordeste 8 Nordeste 0 -- -- 60
2019-10-10 13:00:00 18.7 3 Nordeste 6 Nordeste 0 -- -- 60
2019-10-10 12:00:00 15.5 2 Oeste 5 Norte 0 -- -- 85
2019-10-10 11:00:00 12.1 2 Este 5 Este 0 -- -- 97
2019-10-10 10:00:00 8.7 0 Calma 4 Norte 0 -- -- 100
2019-10-10 09:00:00 6.9 0 Calma 2 Nordeste 0 -- -- 100
2019-10-10 08:00:00 6.8 0 Calma -- -- 0 -- -- 99
2019-10-10 07:00:00 7.6 0 Calma 2 Norte 0 -- -- 99
2019-10-10 06:00:00 8 0 Calma 4 Noroeste 0 -- -- 99
2019-10-10 05:00:00 8.8 0 Calma 3 Este 0 -- -- 98
2019-10-10 04:00:00 9.6 0 Calma 5 Noroeste 0 -- -- 98
2019-10-10 03:00:00 10 3 Norte 5 Noroeste 0 -- -- 98
2019-10-10 02:00:00 10.4 3 Sudoeste 4 Sudoeste 0 -- -- 97
2019-10-10 01:00:00 11 0 Calma 5 Nordeste 0 -- -- 96
2019-10-10 00:00:00 10.7 2 Sudoeste 5 Noroeste 0 -- -- 95
2019-10-09 23:00:00 11.3 0 Calma 3 Sudoeste 0 -- -- 94
2019-10-09 22:00:00 11.8 0 Calma 4 Sudoeste 0 -- -- 92
2019-10-09 21:00:00 12.8 0 Calma 5 Sudoeste 0 -- -- 88
2019-10-09 20:00:00 14.3 4 Sudoeste 7 Oeste 0 -- -- 83
2019-10-09 19:00:00 16.1 6 Noroeste 18 Norte 0 -- -- 74
2019-10-09 18:00:00 17.3 10 Noroeste 21 Norte 0 -- -- 69
2019-10-09 17:00:00 18.2 12 Norte 23 Norte 0 -- -- 60
2019-10-09 16:00:00 18.4 12 Norte 22 Noroeste 0 -- -- 61
2019-10-09 15:00:00 18.1 12 Noroeste 23 Norte 0 -- -- 63
2019-10-09 14:00:00 18.2 9 Noroeste 19 Noroeste 0 -- -- 64
2019-10-09 13:00:00 17.5 7 Norte 20 Noroeste 0 -- -- 63
2019-10-09 12:00:00 16.9 6 Noroeste 17 Oeste 0 -- -- 69
2019-10-09 11:00:00 15.6 5 Sudeste 9 Este 0 -- -- 90
2019-10-09 10:00:00 13.8 4 Sudeste 6 Este 0 -- -- 95
2019-10-09 09:00:00 12.9 0 Calma 5 Noroeste 0 -- -- 99
2019-10-09 08:00:00 13.2 0 Calma 5 Sudeste 0 -- -- 98
2019-10-09 07:00:00 13.1 2 Sur 8 Sudeste 0.2 -- -- 98
2019-10-09 06:00:00 13.2 4 Este 13 Sudeste 0 -- -- 98
2019-10-09 05:00:00 13.1 6 Sudeste 8 Sudeste 0.2 -- -- 98
2019-10-09 04:00:00 13.2 2 Oeste 10 Oeste 0 -- -- 98
2019-10-09 03:00:00 13.4 5 Noroeste 9 Sudeste 0 -- -- 99
2019-10-09 02:00:00 13.4 5 Sudeste 9 Sudeste 0.6 -- -- 98
2019-10-09 01:00:00 13.7 2 Sudeste 8 Sudeste 0.2 -- -- 97
2019-10-09 00:00:00 14 0 Calma 5 Nordeste 1 -- -- 98
2019-10-08 23:00:00 14.2 6 Nordeste 11 Norte 1.2 -- -- 98
2019-10-08 22:00:00 14.6 2 Sudoeste 6 Este 0.6 -- -- 97
2019-10-08 21:00:00 15 3 Este 12 Noroeste 0.2 -- -- 95
2019-10-08 20:00:00 15.6 3 Norte 16 Norte 0.4 -- -- 96
2019-10-08 19:00:00 16.3 9 Noroeste 21 Noroeste 0.8 -- -- 93
2019-10-08 18:00:00 17.5 10 Noroeste 29 Noroeste 0 -- -- 94
2019-10-08 17:00:00 18.6 19 Noroeste 34 Noroeste 0 -- -- 89
2019-10-08 16:00:00 20.8 20 Noroeste 40 Noroeste 0 -- -- 79
2019-10-08 15:00:00 24.6 7 Norte 12 Este 0 -- -- 61
2019-10-08 14:00:00 24.3 4 Este 16 Oeste 0 -- -- 67
2019-10-08 13:00:00 22.3 3 Nordeste 6 Norte 0 -- -- 63
2019-10-08 12:00:00 19 2 Este 5 Este 0 -- -- 78
2019-10-08 11:00:00 14.9 2 Norte 5 Norte 0 -- -- 86
2019-10-08 10:00:00 11.5 0 Calma 3 Norte 0 -- -- 96
2019-10-08 09:00:00 8.4 0 Calma 4 Noroeste 0 -- -- 99
2019-10-08 08:00:00 8.4 0 Calma 3 Noroeste 0 -- -- 98
2019-10-08 07:00:00 8.7 0 Calma 3 Norte 0 -- -- 98
2019-10-08 06:00:00 9 0 Calma 3 Sudoeste 0 -- -- 98
2019-10-08 05:00:00 9.5 0 Calma 2 Noroeste 0 -- -- 97
2019-10-08 04:00:00 9.7 0 Calma 6 Oeste 0 -- -- 97
2019-10-08 03:00:00 10 4 Noroeste 5 Noroeste 0 -- -- 97
2019-10-08 02:00:00 10.7 0 Calma 2 Noroeste 0 -- -- 94
2019-10-08 01:00:00 11.3 2 Noroeste 3 Noroeste 0 -- -- 95
2019-10-08 00:00:00 12 2 Noroeste 4 Norte 0 -- -- 93
2019-10-07 23:00:00 12.6 0 Calma 3 Este 0 -- -- 89
2019-10-07 22:00:00 13.4 0 Calma 4 Sudoeste 0 -- -- 88
2019-10-07 21:00:00 14.5 2 Sudoeste 6 Noroeste 0 -- -- 82
2019-10-07 20:00:00 17.2 2 Sudoeste 6 Sudoeste 0 -- -- 76
2019-10-07 19:00:00 21.6 2 Sudoeste 7 Norte 0 -- -- 57
2019-10-07 18:00:00 22.5 5 Norte 13 Oeste 0 -- -- 47
2019-10-07 17:00:00 23.3 4 Norte 13 Noroeste 0 -- -- 51
2019-10-07 16:00:00 23.4 5 Norte 11 Norte 0 -- -- 48
2019-10-07 15:00:00 23.6 3 Sur 9 Oeste 0 -- -- 41
2019-10-07 14:00:00 21.9 3 Nordeste 8 Norte 0 -- -- 50
2019-10-07 13:00:00 20.3 2 Nordeste 6 Nordeste 0 -- -- 61
2019-10-07 12:00:00 17.2 0 Calma 5 Nordeste 0 -- -- 86
2019-10-07 11:00:00 13.7 2 Este 5 Sudeste 0 -- -- 100
2019-10-07 10:00:00 10.5 0 Calma 3 Noroeste 0 -- -- 100
2019-10-07 09:00:00 9.1 0 Calma 2 Sudeste 0 -- -- 100
2019-10-07 08:00:00 9.4 0 Calma 3 Oeste 0 -- -- 100
2019-10-07 07:00:00 9.9 0 Calma 3 Oeste 0 -- -- 100
2019-10-07 06:00:00 10.3 0 Calma 3 Sudoeste 0 -- -- 100
2019-10-07 05:00:00 10.7 0 Calma 2 Nordeste 0 -- -- 100
2019-10-07 04:00:00 11.3 0 Calma 3 Sudoeste 0 -- -- 99
2019-10-07 03:00:00 11.8 0 Calma 4 Noroeste 0 -- -- 100
2019-10-07 02:00:00 12.4 0 Calma 3 Noroeste 0 -- -- 98
2019-10-07 01:00:00 13 0 Calma 6 Noroeste 0 -- -- 98
2019-10-07 00:00:00 13.3 0 Calma 3 Sur 0 -- -- 98
2019-10-06 23:00:00 13.3 3 Noroeste 7 Nordeste 0 -- -- 98
2019-10-06 22:00:00 13.9 2 Norte 5 Nordeste 0 -- -- 97
2019-10-06 21:00:00 14.9 0 Calma 6 Norte 0 -- -- 94
2019-10-06 20:00:00 15.8 3 Norte 10 Norte 0 -- -- 90
2019-10-06 19:00:00 16.3 5 Norte 13 Nordeste 0 -- -- 90
2019-10-06 18:00:00 16.5 5 Norte 14 Noroeste 0 -- -- 92
2019-10-06 17:00:00 16.8 6 Norte 20 Norte 0 -- -- 91
2019-10-06 16:00:00 17.5 2 Nordeste 11 Este 0 -- -- 90
2019-10-06 15:00:00 16.4 4 Este 10 Este 0.2 -- -- 94
2019-10-06 14:00:00 15.7 3 Oeste 9 Norte 0.6 -- -- 96
2019-10-06 13:00:00 15.8 6 Sudeste 8 Sudeste 0.2 -- -- 98
2019-10-06 12:00:00 15.4 0 Calma 7 Norte 0.4 -- -- 99
2019-10-06 11:00:00 14.9 3 Noroeste 6 Noroeste 0.2 -- -- 97
2019-10-06 10:00:00 14.6 3 Norte 6 Norte 0 -- -- 98
2019-10-06 09:00:00 14 0 Calma 6 Noroeste 0 -- -- 98
2019-10-06 08:00:00 13.6 3 Noroeste 8 Noroeste 0 -- -- 98
2019-10-06 07:00:00 13.6 3 Noroeste 6 Noroeste 0 -- -- 98
2019-10-06 06:00:00 13.5 0 Calma 4 Sudeste 0 -- -- 98
2019-10-06 05:00:00 13.3 2 Nordeste 6 Noroeste 0 -- -- 98
2019-10-06 04:00:00 13.1 2 Este 5 Nordeste 0 -- -- 97
2019-10-06 03:00:00 13.5 3 Sur 5 Sudeste 0 -- -- 96
2019-10-06 02:00:00 13.5 5 Noroeste 10 Noroeste 0 -- -- 97
2019-10-06 01:00:00 13.6 3 Sudoeste 11 Sudeste 0 -- -- 94
2019-10-06 00:00:00 14.2 9 Sudeste 13 Sudeste 0 -- -- 93
2019-10-05 23:00:00 14.8 8 Noroeste 12 Noroeste 0 -- -- 91
2019-10-05 22:00:00 15.9 0 Calma 4 Sudoeste 0 -- -- 88
2019-10-05 21:00:00 16.2 2 Sur 7 Noroeste 0 -- -- 87
2019-10-05 20:00:00 16.7 5 Norte 11 Norte 0 -- -- 79
2019-10-05 19:00:00 16.9 4 Norte 12 Nordeste 0 -- -- 82
2019-10-05 18:00:00 17.3 8 Nordeste 22 Norte 0 -- -- 81
2019-10-05 17:00:00 18.1 13 Norte 19 Norte 0 -- -- 80
2019-10-05 16:00:00 18.8 12 Norte 20 Norte 0 -- -- 76
2019-10-05 15:00:00 19.2 10 Nordeste 19 Nordeste 0 -- -- 74
2019-10-05 14:00:00 19.4 7 Nordeste 18 Nordeste 0 -- -- 71
2019-10-05 13:00:00 19.5 4 Nordeste 15 Nordeste 0 -- -- 76
2019-10-05 12:00:00 18 4 Este 8 Este 0 -- -- 82
2019-10-05 11:00:00 14.7 0 Calma 6 Este 0 -- -- 98
2019-10-05 10:00:00 12.7 0 Calma 5 Este 0 -- -- 100
2019-10-05 09:00:00 12.4 0 Calma 6 Sudeste 0 -- -- 100
2019-10-05 08:00:00 13 0 Calma 3 Sudoeste 0 -- -- 100
2019-10-05 07:00:00 13.6 0 Calma 4 Noroeste 0.2 -- -- 100
2019-10-05 06:00:00 14 0 Calma 3 Norte 0 -- -- 99
2019-10-05 05:00:00 14.3 0 Calma 3 Oeste 0 -- -- 99
2019-10-05 04:00:00 14.5 0 Calma 2 Oeste 0 -- -- 99
2019-10-05 03:00:00 14.5 2 Sudoeste 4 Oeste 0 -- -- 98
2019-10-05 02:00:00 14.7 2 Nordeste 5 Sudeste 0 -- -- 99
2019-10-05 01:00:00 14.8 0 Calma 4 Sudoeste 0 -- -- 99
2019-10-05 00:00:00 14.8 0 Calma 4 Noroeste 0 -- -- 99
2019-10-04 23:00:00 14.9 0 Calma 4 Sudeste 0 -- -- 98
2019-10-04 22:00:00 14.9 0 Calma 4 Sudeste 0 -- -- 97
2019-10-04 21:00:00 14.9 2 Sudeste 12 Norte 0.2 -- -- 97
2019-10-04 20:00:00 15.6 4 Noroeste 9 Noroeste 0.2 -- -- 96
2019-10-04 19:00:00 16 2 Este 4 Este 0.2 -- -- 97
2019-10-04 18:00:00 16.1 0 Calma 6 Este 0.2 -- -- 96
2019-10-04 17:00:00 15.8 4 Nordeste 15 Nordeste 0 -- -- 97
2019-10-04 16:00:00 15.7 9 Norte 17 Norte 0 -- -- 96
2019-10-04 15:00:00 17.2 6 Norte 16 Norte 0 -- -- 94
2019-10-04 14:00:00 18 9 Noroeste 15 Noroeste 0 -- -- 89
2019-10-04 13:00:00 17.1 5 Noroeste 10 Norte 0 -- -- 94
2019-10-04 12:00:00 16.5 2 Sudeste 5 Sudeste 0.2 -- -- 99
2019-10-04 11:00:00 15.4 0 Calma 3 Este 0.4 -- -- 100
2019-10-04 10:00:00 14.3 0 Calma 6 Noroeste 0.2 -- -- 100
2019-10-04 09:00:00 13.7 3 Noroeste 8 Noroeste 0.4 -- -- 100
2019-10-04 08:00:00 13.4 0 Calma 4 Sudeste 0 -- -- 99
2019-10-04 07:00:00 13.1 0 Calma 4 Sudeste 0 -- -- 99
2019-10-04 06:00:00 12.6 0 Calma 4 Norte 0 -- -- 99
2019-10-04 05:00:00 11.9 0 Calma 6 Norte 0 -- -- 99
2019-10-04 04:00:00 12 3 Sudoeste 6 Norte 0 -- -- 98
2019-10-04 03:00:00 12.6 0 Calma 4 Noroeste 0 -- -- 96
2019-10-04 02:00:00 13 0 Calma 4 Sur 0 -- -- 96
2019-10-04 01:00:00 13.7 0 Calma 4 Norte 0 -- -- 95
2019-10-04 00:00:00 14.4 0 Calma 6 Norte 0 -- -- 92
2019-10-03 23:00:00 14.8 0 Calma 4 Sudoeste 0 -- -- 91
2019-10-03 22:00:00 15 0 Calma 4 Sudoeste 0 -- -- 87
2019-10-03 21:00:00 16.1 0 Calma 9 Sudoeste 0 -- -- 84
2019-10-03 20:00:00 18.4 3 Sudeste 5 Norte 0 -- -- 76
2019-10-03 19:00:00 19.8 0 Calma 12 Nordeste 0 -- -- 64
2019-10-03 18:00:00 20.4 8 Norte 18 Nordeste 0 -- -- 62
2019-10-03 17:00:00 21.3 9 Nordeste 16 Nordeste 0 -- -- 61
2019-10-03 16:00:00 21.5 8 Nordeste 15 Nordeste 0 -- -- 62
2019-10-03 15:00:00 21.4 8 Norte 21 Noroeste 0 -- -- 58
2019-10-03 14:00:00 21.2 13 Noroeste 23 Norte 0 -- -- 58
2019-10-03 13:00:00 20.4 4 Nordeste 10 Norte 0 -- -- 62
2019-10-03 12:00:00 17.4 3 Nordeste 6 Este 0 -- -- 75
2019-10-03 11:00:00 13.5 2 Norte 7 Noroeste 0 -- -- 98
2019-10-03 10:00:00 10.8 0 Calma 3 Sudoeste 0 -- -- 100
2019-10-03 09:00:00 9.4 2 Sudoeste 4 Norte 0 -- -- 100
2019-10-03 08:00:00 9.6 0 Calma 5 Sudeste 0 -- -- 99
2019-10-03 07:00:00 10.2 0 Calma 2 Sudeste 0 -- -- 99
2019-10-03 06:00:00 10.9 0 Calma 3 Sudoeste 0 -- -- 99
2019-10-03 05:00:00 11.5 0 Calma 4 Norte 0 -- -- 99
2019-10-03 04:00:00 11.9 0 Calma 3 Norte 0 -- -- 99
2019-10-03 03:00:00 12.1 0 Calma 4 Noroeste 0 -- -- 98
2019-10-03 02:00:00 12.8 0 Calma 4 Noroeste 0 -- -- 95
2019-10-03 01:00:00 13.9 0 Calma 4 Noroeste 0 -- -- 96
2019-10-03 00:00:00 14.4 3 Este 5 Nordeste 0 -- -- 94
2019-10-02 23:00:00 14.6 2 Noroeste 3 Norte 0 -- -- 95
2019-10-02 22:00:00 14.8 2 Noroeste 5 Nordeste 0 -- -- 94
2019-10-02 21:00:00 15.5 2 Sudoeste 5 Noroeste 0 -- -- 92
2019-10-02 20:00:00 16 3 Noroeste 9 Nordeste 0.2 -- -- 89
2019-10-02 19:00:00 16.8 4 Norte 16 Noroeste 0 -- -- 83
2019-10-02 18:00:00 17.1 9 Noroeste 23 Noroeste 0 -- -- 76
2019-10-02 17:00:00 18 9 Noroeste 24 Noroeste 0 -- -- 75
2019-10-02 16:00:00 17.8 14 Noroeste 26 Noroeste 0 -- -- 72
2019-10-02 15:00:00 19.1 13 Noroeste 24 Noroeste 0 -- -- 66
2019-10-02 14:00:00 17.9 10 Noroeste 21 Oeste 0 -- -- 73
2019-10-02 13:00:00 17.4 8 Noroeste 16 Noroeste 0 -- -- 75
2019-10-02 12:00:00 16 3 Nordeste 11 Nordeste 0 -- -- 86
2019-10-02 11:00:00 14.5 5 Sudeste 9 Sudeste 0.4 -- -- 95
2019-10-02 10:00:00 13.6 6 Sudeste 8 Sudeste 2.2 -- -- 97
2019-10-02 09:00:00 13.8 0 Calma 9 Noroeste 0.8 -- -- 96
2019-10-02 08:00:00 14.2 8 Noroeste 19 Noroeste 0.2 -- -- 92
2019-10-02 07:00:00 14.5 13 Noroeste 26 Noroeste 0.6 -- -- 92
2019-10-02 06:00:00 14 4 Sudeste 9 Noroeste 0 -- -- 92
2019-10-02 05:00:00 13.8 2 Sudoeste 11 Noroeste 0 -- -- 94
2019-10-02 04:00:00 14 2 Oeste 9 Oeste 0 -- -- 93
2019-10-02 03:00:00 14.4 3 Este 6 Nordeste 0 -- -- 90
2019-10-02 02:00:00 14.7 4 Sudeste 8 Sudoeste 0 -- -- 86
2019-10-02 01:00:00 15.7 0 Calma 13 Oeste 0 -- -- 84
2019-10-02 00:00:00 16.4 2 Oeste 18 Oeste 0 -- -- 86
2019-10-01 23:00:00 16.4 0 Calma 15 Noroeste 0.2 -- -- 92
2019-10-01 22:00:00 16.6 5 Oeste 19 Oeste 0 -- -- 90
2019-10-01 21:00:00 16.6 7 Noroeste 13 Nordeste 2.4 -- -- 91
2019-10-01 20:00:00 16.8 5 Oeste 26 Noroeste 0.6 -- -- 90
2019-10-01 19:00:00 18 6 Noroeste 22 Noroeste 0 -- -- 82
2019-10-01 18:00:00 19.1 5 Noroeste 23 Noroeste 0 -- -- 74
2019-10-01 17:00:00 18.8 11 Noroeste 24 Noroeste 0 -- -- 78
2019-10-01 16:00:00 19.5 5 Norte 26 Noroeste 0 -- -- 79
2019-10-01 15:00:00 20.3 9 Noroeste 21 Norte 0 -- -- 74
2019-10-01 14:00:00 22 8 Norte 17 Noroeste 0 -- -- 71
2019-10-01 13:00:00 21 6 Noroeste 12 Noroeste 0 -- -- 71
2019-10-01 12:00:00 19.7 6 Noroeste 15 Noroeste 0 -- -- 81
2019-10-01 11:00:00 19.2 2 Nordeste 5 Nordeste 0 -- -- 86
2019-10-01 10:00:00 17.2 0 Calma 6 Noroeste 0 -- -- 95
2019-10-01 09:00:00 15.8 0 Calma 5 Noroeste 0 -- -- 97
2019-10-01 08:00:00 15.6 0 Calma 8 Noroeste 0 -- -- 98
2019-10-01 07:00:00 15.3 0 Calma 7 Noroeste 0 -- -- 99
2019-10-01 06:00:00 14.3 4 Este 6 Sudoeste 0 -- -- 99
2019-10-01 05:00:00 14.2 2 Nordeste 6 Norte 0 -- -- 98
2019-10-01 04:00:00 14.6 0 Calma 5 Noroeste 0 -- -- 98
2019-10-01 03:00:00 15.3 0 Calma 4 Noroeste 0 -- -- 96
2019-10-01 02:00:00 15.5 0 Calma 6 Noroeste 0 -- -- 95
2019-10-01 01:00:00 16.1 0 Calma 5 Sudeste 0 -- -- 93
2019-10-01 00:00:00 16.8 0 Calma 7 Noroeste 0 -- -- 92
2019-09-30 23:00:00 17.7 4 Noroeste 8 Norte 0 -- -- 91
2019-09-30 22:00:00 19.2 2 Norte 8 Noroeste 0 -- -- 86
2019-09-30 21:00:00 21.1 3 Norte 18 Oeste 0 -- -- 76
2019-09-30 20:00:00 23.3 4 Noroeste 13 Oeste 0 -- -- 68
2019-09-30 19:00:00 25.1 10 Norte 19 Norte 0 -- -- 63
2019-09-30 18:00:00 26.7 7 Norte 12 Noroeste 0 -- -- 57
2019-09-30 17:00:00 27.2 5 Nordeste 15 Norte 0 -- -- 55
2019-09-30 16:00:00 26.9 6 Nordeste 14 Este 0 -- -- 55
2019-09-30 15:00:00 26.6 6 Norte 14 Nordeste 0 -- -- 56
2019-09-30 14:00:00 26.1 6 Nordeste 12 Nordeste 0 -- -- 53
2019-09-30 13:00:00 25 6 Este 9 Este 0 -- -- 58
2019-09-30 12:00:00 21.7 4 Este 6 Este 0 -- -- 77
2019-09-30 11:00:00 17.6 2 Norte 5 Sudeste 0 -- -- 91
2019-09-30 10:00:00 15 2 Sudeste 6 Sudeste 0 -- -- 99
2019-09-30 09:00:00 14.9 3 Sudeste 5 Este 0 -- -- 99
2019-09-30 08:00:00 15.1 3 Sudeste 5 Sudeste 0 -- -- 97
2019-09-30 07:00:00 15.9 3 Sudeste 5 Sudeste 0 -- -- 97
2019-09-30 06:00:00 16.3 4 Sur 7 Sudeste 0 -- -- 97
2019-09-30 05:00:00 16.5 0 Calma 5 Sudeste 0 -- -- 96
2019-09-30 04:00:00 16.3 2 Este 6 Sudoeste 0 -- -- 96
2019-09-30 03:00:00 16.4 2 Nordeste 5 Norte 0 -- -- 96
2019-09-30 02:00:00 17.6 3 Noroeste 6 Noroeste 0 -- -- 92
2019-09-30 01:00:00 18.4 0 Calma 2 Sudeste 0 -- -- 91
2019-09-30 00:00:00 18.6 0 Calma 3 Noroeste 0 -- -- 89
2019-09-29 23:00:00 18.6 0 Calma 4 Sudoeste 0 -- -- 86
2019-09-29 22:00:00 18.9 0 Calma 7 Norte 0 -- -- 84
2019-09-29 21:00:00 18.5 0 Calma 9 Norte 0 -- -- 79
2019-09-29 20:00:00 21.5 5 Noroeste 13 Norte 0 -- -- 64
2019-09-29 19:00:00 23.3 9 Norte 18 Norte 0 -- -- 54
2019-09-29 18:00:00 25 8 Norte 17 Norte 0 -- -- 47
2019-09-29 17:00:00 25.4 9 Nordeste 30 Norte 0 -- -- 44
2019-09-29 16:00:00 26.9 10 Norte 21 Norte 0 -- -- 36
2019-09-29 15:00:00 26.3 13 Nordeste 21 Norte 0 -- -- 40
2019-09-29 14:00:00 25.6 5 Nordeste 17 Nordeste 0 -- -- 41
2019-09-29 13:00:00 24.3 10 Norte 16 Norte 0 -- -- 44
2019-09-29 12:00:00 22.4 7 Norte 12 Norte 0 -- -- 59
2019-09-29 11:00:00 17.2 3 Norte 6 Este 0 -- -- 95
2019-09-29 10:00:00 11.6 3 Nordeste 5 Sudeste 0 -- -- 100
2019-09-29 09:00:00 8.2 2 Noroeste 5 Noroeste 0 -- -- 100
2019-09-29 08:00:00 7.7 2 Sur 5 Norte 0 -- -- 100
2019-09-29 07:00:00 8.5 0 Calma 4 Este 0 -- -- 100
2019-09-29 06:00:00 9.1 2 Norte 7 Norte 0 -- -- 100
2019-09-29 05:00:00 10.1 0 Calma 4 Sudeste 0 -- -- 100
2019-09-29 04:00:00 10.6 0 Calma 5 Sudoeste 0 -- -- 99
2019-09-29 03:00:00 11.6 3 Noroeste 5 Noroeste 0 -- -- 99
2019-09-29 02:00:00 12.3 0 Calma 8 Noroeste 0 -- -- 98
2019-09-29 01:00:00 13.2 2 Norte 6 Noroeste 0 -- -- 96
2019-09-29 00:00:00 14 3 Norte 6 Norte 0 -- -- 96
2019-09-28 23:00:00 14.8 0 Calma 9 Noroeste 0 -- -- 94
2019-09-28 22:00:00 16.1 2 Sur 5 Noroeste 0 -- -- 91
2019-09-28 21:00:00 18 3 Oeste 7 Sudeste 0 -- -- 87
2019-09-28 20:00:00 18.9 0 Calma 13 Oeste 0 -- -- 81
2019-09-28 19:00:00 19.6 5 Noroeste 14 Norte 0 -- -- 78
2019-09-28 18:00:00 20 9 Norte 18 Norte 0 -- -- 76
2019-09-28 17:00:00 21 11 Norte 21 Norte 0 -- -- 72
2019-09-28 16:00:00 21.7 8 Nordeste 21 Norte 0 -- -- 70
2019-09-28 15:00:00 21.3 12 Norte 20 Norte 0 -- -- 70
2019-09-28 14:00:00 20.9 8 Nordeste 16 Norte 0 -- -- 68
2019-09-28 13:00:00 20.3 9 Noroeste 14 Noroeste 0 -- -- 71
2019-09-28 12:00:00 19.4 8 Norte 13 Nordeste 0 -- -- 73
2019-09-28 11:00:00 18.5 3 Este 6 Este 0 -- -- 82
2019-09-28 10:00:00 16.6 2 Nordeste 5 Este 0 -- -- 90
2019-09-28 09:00:00 15 4 Sudeste 5 Sudeste 0 -- -- 97
2019-09-28 08:00:00 14.9 0 Calma 3 Sur 0 -- -- 98
2019-09-28 07:00:00 14.9 0 Calma 3 Norte 0 -- -- 97
2019-09-28 06:00:00 14.9 0 Calma 3 Norte 0 -- -- 98
2019-09-28 05:00:00 15 0 Calma 2 Sur 0 -- -- 96
2019-09-28 04:00:00 15 0 Calma 2 Nordeste 0 -- -- 96
2019-09-28 03:00:00 15 2 Noroeste 5 Noroeste 0 -- -- 96
2019-09-28 02:00:00 15.2 0 Calma 3 Noroeste 0 -- -- 95
2019-09-28 01:00:00 15.2 0 Calma 4 Nordeste 0 -- -- 94
2019-09-28 00:00:00 15.3 0 Calma 6 Norte 0 -- -- 94
2019-09-27 23:00:00 15.4 4 Nordeste 10 Sudeste 0 -- -- 91
2019-09-27 22:00:00 15.5 6 Sur 17 Sudeste 0 -- -- 91
2019-09-27 21:00:00 15.9 4 Sur 10 Este 0 -- -- 91
2019-09-27 20:00:00 15.9 6 Este 26 Noroeste 0 -- -- 91
2019-09-27 19:00:00 16.9 5 Noroeste 19 Noroeste 0 -- -- 92
2019-09-27 18:00:00 17.7 9 Noroeste 19 Noroeste 0 -- -- 85
2019-09-27 17:00:00 19.3 12 Noroeste 28 Noroeste 0 -- -- 81
2019-09-27 16:00:00 22.4 11 Norte 22 Norte 0 -- -- 72
2019-09-27 15:00:00 22.7 10 Norte 18 Nordeste 0 -- -- 62
2019-09-27 14:00:00 22.1 5 Nordeste 12 Este 0 -- -- 65
2019-09-27 13:00:00 21.2 5 Sudeste 10 Sudeste 0 -- -- 70
2019-09-27 12:00:00 18.5 5 Nordeste 10 Norte 0 -- -- 83
2019-09-27 11:00:00 17.9 3 Este 10 Nordeste 0 -- -- 86
2019-09-27 10:00:00 13.5 0 Calma 6 Norte 0 -- -- 100
2019-09-27 09:00:00 10.5 0 Calma 4 Sudeste 0 -- -- 100
2019-09-27 08:00:00 10.3 0 Calma 7 Noroeste 0 -- -- 99
2019-09-27 07:00:00 10.7 0 Calma 6 Oeste 0 -- -- 99
2019-09-27 06:00:00 11.1 0 Calma 6 Noroeste 0 -- -- 99
2019-09-27 05:00:00 11.6 3 Sudoeste 6 Noroeste 0 -- -- 99
2019-09-27 04:00:00 12.9 2 Este 7 Noroeste 0 -- -- 98
2019-09-27 03:00:00 13.4 3 Sudoeste 5 Sudoeste 0 -- -- 96
2019-09-27 02:00:00 14.2 4 Noroeste 7 Norte 0 -- -- 96
2019-09-27 01:00:00 14.1 3 Noroeste 6 Noroeste 0 -- -- 96
2019-09-27 00:00:00 13.8 2 Sudoeste 4 Nordeste 0 -- -- 95
2019-09-26 23:00:00 14 2 Noroeste 5 Noroeste 0 -- -- 94
2019-09-26 22:00:00 15 2 Sur 6 Noroeste 0 -- -- 90
2019-09-26 21:00:00 16.5 3 Nordeste 10 Noroeste 0 -- -- 87
2019-09-26 20:00:00 18.2 4 Oeste 6 Noroeste 0 -- -- 81
2019-09-26 19:00:00 20.1 2 Este 14 Norte 0 -- -- 73
2019-09-26 18:00:00 20.1 10 Norte 24 Norte 0 -- -- 71
2019-09-26 17:00:00 20.5 14 Norte 30 Norte 0 -- -- 70
2019-09-26 16:00:00 21.5 15 Norte 26 Norte 0 -- -- 70
2019-09-26 15:00:00 21.9 12 Norte 18 Norte 0 -- -- 68
2019-09-26 14:00:00 21.3 6 Norte 18 Nordeste 0 -- -- 66
2019-09-26 13:00:00 20.5 11 Norte 21 Norte 0 -- -- 69
2019-09-26 12:00:00 19.5 8 Norte 15 Norte 0 -- -- 76
2019-09-26 11:00:00 18.1 3 Norte 6 Noroeste 0 -- -- 82
2019-09-26 10:00:00 15.1 0 Calma 4 Norte 0 -- -- 90
2019-09-26 09:00:00 13 0 Calma 4 Sudoeste 0 -- -- 98
2019-09-26 08:00:00 12.6 0 Calma 4 Noroeste 0 -- -- 97
2019-09-26 07:00:00 12.7 0 Calma 4 Este 0 -- -- 97
2019-09-26 06:00:00 12.7 0 Calma 4 Sudoeste 0 -- -- 97
2019-09-26 05:00:00 13.2 2 Norte 4 Noroeste 0 -- -- 95
2019-09-26 04:00:00 13.3 0 Calma 3 Oeste 0 -- -- 94
2019-09-26 03:00:00 14.2 2 Sur 5 Noroeste 0 -- -- 93
2019-09-26 02:00:00 15.7 0 Calma 3 Sudeste 0 -- -- 90
2019-09-26 01:00:00 16 2 Sudoeste 7 Norte 0 -- -- 92
2019-09-26 00:00:00 16.1 2 Oeste 6 Norte 0 -- -- 90
2019-09-25 23:00:00 16.5 2 Norte 5 Norte 0 -- -- 88
2019-09-25 22:00:00 16.8 0 Calma 3 Norte 0 -- -- 86
2019-09-25 21:00:00 17.3 0 Calma 4 Norte 0 -- -- 81
2019-09-25 20:00:00 18.1 2 Norte 13 Norte 0 -- -- 75
2019-09-25 19:00:00 18.6 8 Norte 15 Norte 0 -- -- 70
2019-09-25 18:00:00 19.3 9 Norte 15 Norte 0 -- -- 71
2019-09-25 17:00:00 20.7 6 Nordeste 15 Nordeste 0 -- -- 61
2019-09-25 16:00:00 20.9 8 Norte 15 Nordeste 0 -- -- 58
2019-09-25 15:00:00 21.1 8 Nordeste 20 Norte 0 -- -- 60
2019-09-25 14:00:00 21.1 10 Norte 22 Norte 0 -- -- 57
2019-09-25 13:00:00 21.4 5 Noroeste 14 Oeste 0 -- -- 50
2019-09-25 12:00:00 20.2 4 Nordeste 9 Este 0 -- -- 62
2019-09-25 11:00:00 16.7 0 Calma 5 Nordeste 0 -- -- 84
2019-09-25 10:00:00 13.7 0 Calma 4 Norte 0 -- -- 96
2019-09-25 09:00:00 11.5 0 Calma 6 Sudoeste 0 -- -- 99
2019-09-25 08:00:00 10.6 0 Calma 8 Oeste 0 -- -- 98
2019-09-25 07:00:00 10.8 3 Oeste 7 Oeste 0 -- -- 97
2019-09-25 06:00:00 11.4 2 Sudoeste 5 Sudeste 0 -- -- 94
2019-09-25 05:00:00 12.5 2 Sur 10 Oeste 0 -- -- 94
2019-09-25 04:00:00 13.8 2 Sudoeste 5 Nordeste 0 -- -- 92
2019-09-25 03:00:00 14.9 3 Sur 6 Nordeste 0 -- -- 91
2019-09-25 02:00:00 15.4 2 Sudeste 8 Sur 0 -- -- 88
2019-09-25 01:00:00 15.7 4 Este 8 Este 0 -- -- 86
2019-09-25 00:00:00 15.8 3 Sur 5 Sudeste 0 -- -- 89
2019-09-24 23:00:00 16 3 Sudeste 6 Sudeste 0 -- -- 87
2019-09-24 22:00:00 16.2 5 Sur 12 Sudeste 0 -- -- 86
2019-09-24 21:00:00 16.4 3 Sur 8 Sudeste 0 -- -- 88
2019-09-24 20:00:00 16.6 8 Sudeste 11 Sudeste 0 -- -- 89
2019-09-24 19:00:00 17.2 6 Sudoeste 15 Noroeste 0 -- -- 88
2019-09-24 18:00:00 18.5 0 Calma 5 Este 0 -- -- 82
2019-09-24 17:00:00 18.6 3 Sudeste 8 Sudeste 0 -- -- 79
2019-09-24 16:00:00 18.2 4 Sudeste 8 Nordeste 0 -- -- 79
2019-09-24 15:00:00 18 6 Norte 14 Norte 0 -- -- 78
2019-09-24 14:00:00 18.6 9 Noroeste 27 Noroeste 0 -- -- 72
2019-09-24 13:00:00 18.7 7 Noroeste 24 Norte 0 -- -- 80
2019-09-24 12:00:00 20.4 13 Noroeste 24 Norte 0 -- -- 77
2019-09-24 11:00:00 20.8 6 Noroeste 10 Norte 0 -- -- 65
2019-09-24 10:00:00 19.9 4 Noroeste 15 Sudeste 0 -- -- 64
2019-09-24 09:00:00 18.5 4 Sudeste 13 Este 0 -- -- 75
2019-09-24 08:00:00 18.5 4 Noroeste 14 Noroeste 0 -- -- 82
2019-09-24 07:00:00 21.1 9 Noroeste 28 Oeste 0 -- -- 64
2019-09-24 06:00:00 22.1 8 Este 31 Sudoeste 0 -- -- 47
2019-09-24 05:00:00 23.2 13 Sur 35 Sudoeste 0 -- -- 46
2019-09-24 04:00:00 23.1 16 Sudoeste 49 Sudoeste 0 -- -- 47
2019-09-24 03:00:00 22.7 25 Sudoeste 53 Sudoeste 0 -- -- 48
2019-09-24 02:00:00 22 12 Sur 42 Sudoeste 0 -- -- 51
2019-09-24 01:00:00 21.5 14 Sur 36 Sudoeste 0 -- -- 55
2019-09-24 00:00:00 16.9 4 Noroeste 10 Nordeste 0 -- -- 83
2019-09-23 23:00:00 17.4 4 Sudoeste 18 Noroeste 0.8 -- -- 86
2019-09-23 22:00:00 19.5 8 Noroeste 12 Sur 0 -- -- 69
2019-09-23 21:00:00 19.7 3 Sur 20 Sudeste 0 -- -- 65
2019-09-23 20:00:00 19.6 4 Sudoeste 16 Este 0.2 -- -- 68
2019-09-23 19:00:00 20.6 9 Este 17 Este 0 -- -- 58
2019-09-23 18:00:00 21.1 9 Sudeste 26 Este 0 -- -- 59
2019-09-23 17:00:00 21.5 8 Este 22 Este 0 -- -- 56
2019-09-23 16:00:00 22.6 5 Sur 23 Sudoeste 0 -- -- 51
2019-09-23 15:00:00 22.7 10 Sudoeste 32 Sur 0 -- -- 51
2019-09-23 14:00:00 21.5 12 Sudoeste 33 Sudoeste 0 -- -- 51
2019-09-23 13:00:00 20 15 Sudeste 26 Sudeste 0 -- -- 61
2019-09-23 12:00:00 18.6 18 Sudeste 28 Sudeste 0 -- -- 62
2019-09-23 11:00:00 14.7 4 Sudoeste 10 Oeste 0 -- -- 90
2019-09-23 10:00:00 12.3 0 Calma 5 Noroeste 0 -- -- 99
2019-09-23 09:00:00 11.4 3 Norte 5 Noroeste 0 -- -- 99
2019-09-23 08:00:00 10.8 0 Calma 3 Sudeste 0 -- -- 99
2019-09-23 07:00:00 10.7 0 Calma 4 Noroeste 0 -- -- 99
2019-09-23 06:00:00 10.5 0 Calma 5 Noroeste 0 -- -- 98
2019-09-23 05:00:00 10.9 2 Noroeste 5 Oeste 0 -- -- 98
2019-09-23 04:00:00 11.2 2 Noroeste 4 Noroeste 0 -- -- 97
2019-09-23 03:00:00 11.5 0 Calma 5 Noroeste 0 -- -- 95
2019-09-23 02:00:00 12.1 0 Calma 4 Noroeste 0 -- -- 94
2019-09-23 01:00:00 13.2 0 Calma 4 Noroeste 0 -- -- 93
2019-09-23 00:00:00 14.5 0 Calma 3 Norte 0 -- -- 91
2019-09-22 23:00:00 14.9 0 Calma 4 Sudeste 0 -- -- 90
2019-09-22 22:00:00 15.4 0 Calma 8 Sudeste 0 -- -- 86
2019-09-22 21:00:00 16.5 5 Este 9 Este 0 -- -- 82
2019-09-22 20:00:00 18.2 3 Oeste 5 Oeste 0 -- -- 73
2019-09-22 19:00:00 18.8 4 Norte 14 Norte 0 -- -- 65
2019-09-22 18:00:00 19.6 7 Norte 23 Norte 0 -- -- 66
2019-09-22 17:00:00 20.9 13 Norte 23 Norte 0 -- -- 61
2019-09-22 16:00:00 20.4 12 Norte 27 Norte 0 -- -- 62
2019-09-22 15:00:00 21.6 14 Norte 25 Norte 0 -- -- 60
2019-09-22 14:00:00 22.3 10 Norte 19 Nordeste 0 -- -- 53
2019-09-22 13:00:00 21.6 5 Nordeste 13 Este 0 -- -- 53
2019-09-22 12:00:00 19.9 5 Este 12 Sudeste 0 -- -- 66
2019-09-22 11:00:00 17 3 Sudoeste 6 Sudeste 0 -- -- 79
2019-09-22 10:00:00 15.8 0 Calma 5 Oeste 0 -- -- 87
2019-09-22 09:00:00 15.1 5 Noroeste 12 Sudeste 0 -- -- 94
2019-09-22 08:00:00 14.8 0 Calma 9 Sudeste 0 -- -- 95
2019-09-22 07:00:00 15 3 Oeste 8 Noroeste 0 -- -- 93
2019-09-22 06:00:00 14.7 0 Calma 5 Sudoeste 0 -- -- 95
2019-09-22 05:00:00 15.3 3 Norte 6 Sudoeste 0 -- -- 94
2019-09-22 04:00:00 15.7 0 Calma 8 Sudeste 0.8 -- -- 92
2019-09-22 03:00:00 16.6 0 Calma 12 Norte 0 -- -- 86
2019-09-22 02:00:00 16.7 9 Norte 14 Norte 0 -- -- 85
2019-09-22 01:00:00 17.8 10 Norte 38 Sudoeste 0 -- -- 89
2019-09-22 00:00:00 22.5 12 Sudoeste 46 Sudeste 0 -- -- 62
2019-09-21 23:00:00 22.5 19 Sudoeste 54 Sudoeste 0 -- -- 62
2019-09-21 22:00:00 23 19 Sur 48 Sudoeste 0 -- -- 61
2019-09-21 21:00:00 22.6 15 Sur 44 Sudeste 0 -- -- 62
2019-09-21 20:00:00 22.5 17 Sur 43 Sur 0 -- -- 63
2019-09-21 19:00:00 22.3 17 Sur 53 Sur 0 -- -- 64
2019-09-21 18:00:00 22.9 23 Sudoeste 57 Sur 0 -- -- 61
2019-09-21 17:00:00 23.1 22 Sudoeste 46 Sudoeste 0 -- -- 61
2019-09-21 16:00:00 23.3 20 Sur 44 Sudeste 0 -- -- 60
2019-09-21 15:00:00 21.4 12 Sur 37 Sudoeste 0.2 -- -- 71
2019-09-21 14:00:00 23.3 18 Sur 48 Sudoeste 0 -- -- 59
2019-09-21 13:00:00 23.8 15 Sur 55 Sur 0 -- -- 56
2019-09-21 12:00:00 23.4 21 Sur 46 Sur 0 -- -- 58
2019-09-21 11:00:00 23.1 14 Sur 38 Sur 0 -- -- 61
2019-09-21 10:00:00 21.9 16 Sur -- -- -- -- -- 63
2019-09-21 09:00:00 20.4 12 Sur 34 Sur 0 -- -- 67
2019-09-21 08:00:00 20.2 6 Sur 28 Sur 0 -- -- 67
2019-09-21 07:00:00 20.6 14 Sur 36 Sudeste 0 -- -- 64
2019-09-21 06:00:00 20.8 13 Sudoeste 31 Sur 0 -- -- 62
2019-09-21 05:00:00 20.8 7 Sur 27 Sur 0 -- -- 65
2019-09-21 04:00:00 20 6 Sudeste 29 Oeste 0 -- -- 70
2019-09-21 03:00:00 20.4 12 Sudeste 28 Sur 0 -- -- 71
2019-09-21 02:00:00 19.4 8 Sur 26 Sudeste 0.4 -- -- 78
2019-09-21 01:00:00 19.3 7 Norte 29 Sudoeste 1.6 -- -- 76
2019-09-21 00:00:00 21.8 13 Sur 40 Sudoeste 0 -- -- 68
2019-09-20 23:00:00 23.2 9 Oeste 29 Sudeste 0 -- -- 59
2019-09-20 22:00:00 23 13 Sur 34 Sur 0 -- -- 54
2019-09-20 21:00:00 22.7 12 Sur 35 Sur 0 -- -- 55
2019-09-20 20:00:00 21.5 8 Sudeste 30 Sur 0.2 -- -- 63
2019-09-20 19:00:00 23.7 10 Sur 32 Sur 0 -- -- 67
2019-09-20 18:00:00 24.8 3 Sur 13 Sur 0 -- -- 68
2019-09-20 17:00:00 26.5 6 Noroeste 18 Sur 0 -- -- 57
2019-09-20 16:00:00 28 8 Sur -- -- -- -- -- 50
2019-09-20 15:00:00 29.9 8 Sur 22 Sudoeste 0 -- -- 49
2019-09-20 14:00:00 28.6 9 Sur 30 Sur 0 -- -- 52
2019-09-20 13:00:00 26.8 13 Sur 26 Sudeste 0 -- -- 58
2019-09-20 12:00:00 25 6 Nordeste 16 Nordeste 0 -- -- 62
2019-09-20 11:00:00 23.2 11 Este 20 Este 0 -- -- 71
2019-09-20 10:00:00 19.6 4 Sur 15 Sudeste 0 -- -- 86
2019-09-20 09:00:00 13.7 3 Oeste 8 Oeste 0 -- -- 100
2019-09-20 08:00:00 12.1 0 Calma 8 Noroeste 0 -- -- 100
2019-09-20 07:00:00 12.6 0 Calma 5 Noroeste 0 -- -- 100
2019-09-20 06:00:00 12.7 0 Calma 5 Nordeste 0 -- -- 100
2019-09-20 05:00:00 12.9 0 Calma 3 Sudeste 0 -- -- 99
2019-09-20 04:00:00 13.1 0 Calma 2 Nordeste 0 -- -- 99
2019-09-20 03:00:00 13.6 0 Calma 3 Oeste 0 -- -- 98
2019-09-20 02:00:00 13.8 0 Calma 4 Sudoeste 0 -- -- 98
2019-09-20 01:00:00 14.2 0 Calma 4 Noroeste 0 -- -- 97
2019-09-20 00:00:00 14.8 0 Calma 5 Sudoeste 0 -- -- 95
2019-09-19 23:00:00 15.5 2 Este 4 Sudoeste 0 -- -- 94
2019-09-19 22:00:00 16.4 0 Calma 3 Norte 0 -- -- 91
2019-09-19 21:00:00 17.7 0 Calma -- -- -- -- -- 86
2019-09-19 20:00:00 19 5 Nordeste 16 Nordeste 0 -- -- 80
2019-09-19 19:00:00 20.5 10 Norte 18 Norte 0 -- -- 75
2019-09-19 18:00:00 21.6 11 Norte 20 Norte 0 -- -- 72
2019-09-19 17:00:00 22.5 11 Norte 23 Norte 0 -- -- 72
2019-09-19 16:00:00 22.5 13 Norte 24 Norte 0 -- -- 74
2019-09-19 15:00:00 23.5 9 Norte 16 Norte -- -- -- 67
2019-09-19 14:00:00 22.7 8 Norte 14 Norte -- -- -- 67
2019-09-19 13:00:00 22.5 5 Norte 10 Nordeste 0 -- -- 67
2019-09-19 12:00:00 20.8 2 Norte 7 Sudoeste 0 -- -- 78
2019-09-19 11:00:00 17.6 2 Nordeste 5 Norte 0 -- -- 90
2019-09-19 10:00:00 15.2 0 Calma 7 Sudeste 0 -- -- 100
2019-09-19 09:00:00 14.9 5 Este 8 Sudeste 0 -- -- 99
2019-09-19 08:00:00 15.3 3 Sur 6 Sudeste 0 -- -- 97
2019-09-19 07:00:00 15.6 0 Calma 5 Sudeste 0 -- -- 96
2019-09-19 06:00:00 16 2 Sur 5 Sudeste 0 -- -- 95
2019-09-19 05:00:00 16.2 2 Sudeste 4 Oeste 0 -- -- 96
2019-09-19 04:00:00 16.6 0 Calma 4 Oeste 0 -- -- 96
2019-09-19 03:00:00 16.7 0 Calma -- -- 0 -- -- 95
2019-09-19 02:00:00 17.6 0 Calma 4 Nordeste 0 -- -- 92
2019-09-19 01:00:00 17.7 3 Norte 9 Nordeste 0 -- -- 92
2019-09-19 00:00:00 17.6 4 Norte 6 Norte 0 -- -- 93
2019-09-18 23:00:00 18.2 0 Calma 6 Norte 0 -- -- 91
2019-09-18 22:00:00 18.5 2 Norte 5 Nordeste 0 -- -- 91
2019-09-18 21:00:00 18.9 2 Norte 14 Nordeste 0 -- -- 89
2019-09-18 20:00:00 19.5 7 Norte 15 Norte 0 -- -- 87
2019-09-18 19:00:00 20.1 8 Norte -- -- -- -- -- 86
2019-09-18 18:00:00 20.8 11 Norte 19 Norte 0 -- -- 84
2019-09-18 17:00:00 21.9 8 Norte 17 Nordeste 0 -- -- 80
2019-09-18 16:00:00 21.7 6 Norte 16 Norte 0 -- -- 83
2019-09-18 15:00:00 21.9 9 Nordeste 16 Nordeste 0 -- -- 83
2019-09-18 14:00:00 22.6 4 Nordeste 13 Norte 0 -- -- 77
2019-09-18 13:00:00 23 7 Norte 14 Noroeste 0 -- -- 75
2019-09-18 12:00:00 21.7 3 Noroeste 8 Sudeste 0 -- -- 78
2019-09-18 11:00:00 21.1 3 Sur 8 Sudeste 0 -- -- 86
2019-09-18 10:00:00 19.2 0 Calma 6 Norte 0 -- -- 97
2019-09-18 09:00:00 17.9 0 Calma 3 Noroeste 0 -- -- 99
2019-09-18 08:00:00 17.5 0 Calma 5 Norte 0 -- -- 99
2019-09-18 07:00:00 17.3 0 Calma 5 Sudoeste 0 -- -- 98
2019-09-18 06:00:00 17.6 3 Noroeste 4 Norte 0 -- -- 98
2019-09-18 05:00:00 17.8 2 Oeste 5 Noroeste 0 -- -- 98
2019-09-18 04:00:00 18 4 Noroeste 7 Noroeste 0 -- -- 97
2019-09-18 03:00:00 18.2 0 Calma 3 Sur 0 -- -- 95
2019-09-18 02:00:00 19.1 2 Oeste 3 Nordeste 0 -- -- 94
2019-09-18 01:00:00 19.4 0 Calma 3 Este 0 -- -- 93
2019-09-18 00:00:00 19.6 2 Norte 7 Noroeste 0 -- -- 92